createdAt,value
2019-03-28T00:00:53.952Z,13.60
2019-03-28T00:02:33.313Z,17.35
2019-03-28T00:04:10.826Z,17.87
2019-03-28T00:05:56.315Z,19.40
2019-03-28T00:07:35.386Z,16.70
2019-03-28T00:09:14.828Z,16.97
2019-03-28T00:10:53.432Z,24.35
2019-03-28T00:12:31.579Z,19.85
2019-03-28T00:14:09.618Z,17.90
2019-03-28T00:15:50.452Z,18.20
2019-03-28T00:17:36.399Z,22.37
2019-03-28T00:19:16.583Z,19.77
2019-03-28T00:20:57.055Z,22.20
2019-03-28T00:22:44.986Z,17.70
2019-03-28T00:24:39.619Z,18.87
2019-03-28T00:26:30.075Z,16.12
2019-03-28T00:28:02.670Z,14.45
2019-03-28T00:29:41.882Z,16.12
2019-03-28T00:31:23.168Z,16.02
2019-03-28T00:33:03.881Z,20.92
2019-03-28T00:34:46.761Z,14.10
2019-03-28T00:36:27.983Z,13.98
2019-03-28T00:38:06.630Z,15.72
2019-03-28T00:39:45.449Z,16.87
2019-03-28T00:41:22.009Z,15.72
2019-03-28T00:43:03.365Z,12.53
2019-03-28T00:44:42.594Z,16.27
2019-03-28T00:46:33.864Z,16.57
2019-03-28T00:48:14.764Z,20.20
2019-03-28T00:49:54.851Z,16.85
2019-03-28T00:51:34.934Z,18.80
2019-03-28T00:53:17.366Z,16.00
2019-03-28T00:55:00.789Z,12.85
2019-03-28T00:56:46.741Z,14.28
2019-03-28T01:00:16.211Z,16.17
2019-03-28T01:01:58.178Z,17.25
2019-03-28T01:03:40.659Z,14.53
2019-03-28T01:05:20.009Z,15.00
2019-03-28T01:07:10.668Z,15.65
2019-03-28T01:08:58.168Z,15.15
2019-03-28T01:10:37.462Z,17.42
2019-03-28T01:12:19.939Z,15.23
2019-03-28T01:14:00.227Z,17.52
2019-03-28T01:15:39.998Z,17.37
2019-03-28T01:17:18.034Z,17.30
2019-03-28T01:18:58.077Z,16.07
2019-03-28T01:20:35.606Z,14.33
2019-03-28T01:22:12.634Z,18.35
2019-03-28T01:23:50.429Z,18.12
2019-03-28T01:25:30.853Z,18.87
2019-03-28T01:27:13.938Z,14.98
2019-03-28T01:28:59.256Z,13.00
2019-03-28T01:30:39.748Z,18.60
2019-03-28T01:32:17.980Z,13.95
2019-03-28T01:33:55.521Z,12.68
2019-03-28T01:35:33.846Z,14.87
2019-03-28T01:37:12.794Z,16.20
2019-03-28T01:38:52.717Z,21.33
2019-03-28T01:40:30.026Z,16.48
2019-03-28T01:42:09.483Z,17.12
2019-03-28T01:43:50.873Z,16.65
2019-03-28T01:45:30.160Z,18.27
2019-03-28T01:47:07.168Z,14.93
2019-03-28T01:48:44.786Z,14.28
2019-03-28T01:50:31.139Z,15.68
2019-03-28T01:52:14.279Z,13.85
2019-03-28T01:53:53.172Z,20.57
2019-03-28T01:55:32.145Z,18.45
2019-03-28T01:57:13.065Z,17.70
2019-03-28T01:58:52.902Z,14.87
2019-03-28T02:00:29.598Z,18.87
2019-03-28T02:02:06.402Z,15.93
2019-03-28T02:03:47.332Z,16.23
2019-03-28T02:05:24.621Z,12.75
2019-03-28T02:07:03.432Z,14.25
2019-03-28T02:08:41.396Z,14.03
2019-03-28T02:10:21.595Z,14.50
2019-03-28T02:12:00.132Z,12.73
2019-03-28T02:13:37.092Z,9.13
2019-03-28T02:15:33.920Z,13.62
2019-03-28T02:17:10.987Z,14.63
2019-03-28T02:18:47.781Z,16.97
2019-03-28T02:20:26.357Z,19.30
2019-03-28T02:22:05.076Z,15.78
2019-03-28T02:23:42.610Z,19.10
2019-03-28T02:25:19.481Z,13.98
2019-03-28T02:26:58.785Z,16.07
2019-03-28T02:28:52.711Z,14.25
2019-03-28T02:30:32.241Z,13.38
2019-03-28T02:32:09.535Z,14.20
2019-03-28T02:33:50.430Z,14.83
2019-03-28T02:35:28.677Z,15.98
2019-03-28T02:37:05.870Z,18.17
2019-03-28T02:38:42.472Z,14.15
2019-03-28T02:40:25.757Z,15.28
2019-03-28T02:42:04.474Z,13.53
2019-03-28T02:43:41.442Z,15.58
2019-03-28T02:45:21.885Z,14.05
2019-03-28T02:47:00.771Z,14.58
2019-03-28T02:48:39.414Z,16.10
2019-03-28T02:50:18.086Z,17.30
2019-03-28T02:51:56.012Z,18.95
2019-03-28T02:53:33.906Z,18.52
2019-03-28T02:55:13.253Z,17.05
2019-03-28T02:56:50.414Z,13.03
2019-03-28T02:58:32.547Z,16.52
2019-03-28T03:00:11.012Z,12.75
2019-03-28T03:01:54.347Z,13.65
2019-03-28T03:03:32.057Z,13.40
2019-03-28T03:05:12.850Z,15.38
2019-03-28T03:06:50.116Z,14.43
2019-03-28T03:08:27.159Z,17.25
2019-03-28T03:10:07.369Z,16.35
2019-03-28T03:11:44.653Z,14.15
2019-03-28T03:13:23.399Z,13.55
2019-03-28T03:15:00.815Z,15.58
2019-03-28T03:16:38.037Z,18.50
2019-03-28T03:18:21.162Z,15.53
2019-03-28T03:19:56.941Z,15.28
2019-03-28T03:21:36.096Z,17.87
2019-03-28T03:23:13.981Z,12.45
2019-03-28T03:24:51.799Z,13.58
2019-03-28T03:26:30.349Z,13.95
2019-03-28T03:28:09.190Z,13.08
2019-03-28T03:29:49.442Z,13.25
2019-03-28T03:31:28.043Z,12.37
2019-03-28T03:33:05.283Z,14.83
2019-03-28T03:34:43.525Z,11.30
2019-03-28T03:36:20.222Z,14.93
2019-03-28T03:37:59.626Z,14.07
2019-03-28T03:39:39.873Z,8.90
2019-03-28T03:41:20.022Z,9.58
2019-03-28T03:42:58.075Z,15.20
2019-03-28T03:44:48.321Z,12.00
2019-03-28T03:46:26.184Z,11.03
2019-03-28T03:48:03.503Z,11.25
2019-03-28T03:49:41.446Z,12.58
2019-03-28T03:51:19.490Z,12.68
2019-03-28T03:53:02.505Z,10.88
2019-03-28T03:54:42.682Z,9.40
2019-03-28T03:56:20.479Z,12.25
2019-03-28T03:58:14.509Z,8.03
2019-03-28T03:59:39.035Z,10.55
2019-03-28T04:01:18.666Z,12.25
2019-03-28T04:02:58.227Z,8.10
2019-03-28T04:04:39.072Z,10.63
2019-03-28T04:06:25.298Z,9.90
2019-03-28T04:08:14.718Z,8.80
2019-03-28T04:09:53.251Z,7.33
2019-03-28T04:11:29.868Z,7.97
2019-03-28T04:13:09.058Z,9.63
2019-03-28T04:14:45.865Z,10.10
2019-03-28T04:16:22.723Z,7.67
2019-03-28T04:18:00.703Z,8.48
2019-03-28T04:19:37.566Z,6.90
2019-03-28T04:21:17.706Z,10.28
2019-03-28T04:22:56.194Z,6.72
2019-03-28T04:24:53.340Z,8.60
2019-03-28T04:26:48.577Z,10.20
2019-03-28T04:28:32.171Z,7.70
2019-03-28T04:30:15.538Z,7.22
2019-03-28T04:31:52.865Z,7.90
2019-03-28T04:33:30.544Z,7.30
2019-03-28T04:35:07.590Z,5.30
2019-03-28T04:36:45.180Z,9.13
2019-03-28T04:38:22.979Z,7.12
2019-03-28T04:40:00.767Z,6.50
2019-03-28T04:41:42.808Z,8.43
2019-03-28T04:43:20.262Z,6.35
2019-03-28T04:44:57.325Z,4.83
2019-03-28T04:46:34.264Z,6.20
2019-03-28T04:48:11.569Z,6.00
2019-03-28T04:49:49.445Z,7.67
2019-03-28T04:51:26.886Z,7.72
2019-03-28T04:53:09.357Z,9.68
2019-03-28T04:54:56.241Z,6.58
2019-03-28T04:56:35.344Z,5.30
2019-03-28T04:58:23.291Z,11.00
2019-03-28T05:00:03.386Z,5.05
2019-03-28T05:01:42.016Z,8.00
2019-03-28T05:03:30.755Z,5.87
2019-03-28T05:05:09.179Z,3.98
2019-03-28T05:06:46.860Z,7.08
2019-03-28T05:08:39.264Z,5.65
2019-03-28T05:10:26.504Z,8.48
2019-03-28T05:12:06.022Z,6.42
2019-03-28T05:13:43.154Z,6.65
2019-03-28T05:15:20.506Z,9.73
2019-03-28T05:16:57.520Z,5.85
2019-03-28T05:18:35.393Z,5.10
2019-03-28T05:20:13.816Z,10.35
2019-03-28T05:21:50.710Z,8.98
2019-03-28T05:23:28.819Z,16.87
2019-03-28T05:25:06.679Z,12.25
2019-03-28T05:26:44.353Z,10.03
2019-03-28T05:28:23.483Z,9.78
2019-03-28T05:30:08.602Z,7.97
2019-03-28T05:31:56.434Z,4.78
2019-03-28T05:33:36.038Z,11.68
2019-03-28T05:35:13.817Z,14.70
2019-03-28T05:36:52.306Z,20.48
2019-03-28T05:38:30.460Z,8.93
2019-03-28T05:40:08.177Z,12.95
2019-03-28T05:41:46.912Z,9.18
2019-03-28T05:43:26.254Z,6.75
2019-03-28T05:45:12.538Z,11.83
2019-03-28T05:46:49.568Z,9.95
2019-03-28T05:48:29.648Z,9.93
2019-03-28T05:50:09.309Z,16.52
2019-03-28T05:51:47.060Z,6.60
2019-03-28T05:53:24.832Z,7.15
2019-03-28T05:55:05.004Z,37.75
2019-03-28T05:56:49.872Z,27.73
2019-03-28T05:58:29.155Z,8.43
2019-03-28T06:00:07.827Z,16.77
2019-03-28T06:01:46.408Z,10.30
2019-03-28T06:03:25.704Z,26.37
2019-03-28T06:05:06.601Z,13.58
2019-03-28T06:06:51.884Z,20.17
2019-03-28T06:08:30.954Z,165.82
2019-03-28T06:10:12.545Z,69.05
2019-03-28T06:11:53.077Z,91.45
2019-03-28T06:13:34.958Z,65.00
2019-03-28T06:15:24.520Z,141.75
2019-03-28T06:17:05.060Z,62.95
2019-03-28T06:18:44.855Z,56.98
2019-03-28T06:20:24.130Z,55.25
2019-03-28T06:22:07.635Z,37.30
2019-03-28T06:23:51.488Z,42.55
2019-03-28T06:25:33.774Z,22.27
2019-03-28T06:27:11.847Z,10.38
2019-03-28T06:28:51.431Z,28.55
2019-03-28T06:30:30.429Z,7.85
2019-03-28T06:32:14.407Z,13.50
2019-03-28T06:33:57.527Z,11.10
2019-03-28T06:35:38.698Z,5.37
2019-03-28T06:37:18.483Z,9.48
2019-03-28T06:38:59.411Z,10.45
2019-03-28T06:40:43.784Z,19.15
2019-03-28T06:42:21.405Z,3.92
2019-03-28T06:44:03.100Z,9.55
2019-03-28T06:45:41.676Z,7.58
2019-03-28T06:47:22.087Z,8.35
2019-03-28T06:49:03.368Z,11.22
2019-03-28T06:50:42.617Z,42.73
2019-03-28T06:52:23.606Z,11.65
2019-03-28T06:54:05.128Z,9.03
2019-03-28T06:55:51.374Z,7.22
2019-03-28T06:57:39.491Z,7.15
2019-03-28T06:59:19.450Z,28.65
2019-03-28T07:01:00.149Z,11.57
2019-03-28T07:02:47.647Z,5.60
2019-03-28T07:04:32.161Z,14.33
2019-03-28T07:06:13.274Z,10.70
2019-03-28T07:07:51.167Z,8.20
2019-03-28T07:09:29.492Z,9.83
2019-03-28T07:11:08.464Z,6.35
2019-03-28T07:12:47.646Z,6.25
2019-03-28T07:14:46.159Z,6.10
2019-03-28T07:16:23.961Z,13.78
2019-03-28T07:18:01.963Z,6.75
2019-03-28T07:19:45.330Z,5.12
2019-03-28T07:21:24.794Z,12.40
2019-03-28T07:23:02.648Z,4.87
2019-03-28T07:24:40.034Z,17.98
2019-03-28T07:26:19.075Z,4.15
2019-03-28T07:27:59.981Z,4.12
2019-03-28T07:29:50.302Z,4.05
2019-03-28T07:31:19.296Z,4.40
2019-03-28T07:32:56.286Z,5.42
2019-03-28T07:34:35.044Z,2.65
2019-03-28T07:36:14.808Z,6.50
2019-03-28T07:37:56.679Z,4.53
2019-03-28T07:39:36.316Z,6.45
2019-03-28T07:41:20.877Z,4.30
2019-03-28T07:43:00.841Z,3.92
2019-03-28T07:44:39.751Z,9.43
2019-03-28T07:46:18.972Z,8.85
2019-03-28T07:47:57.633Z,5.35
2019-03-28T07:49:37.691Z,4.08
2019-03-28T07:51:21.072Z,5.53
2019-03-28T07:53:02.590Z,5.67
2019-03-28T07:54:48.757Z,3.52
2019-03-28T07:56:34.430Z,8.85
2019-03-28T07:58:13.702Z,95.92
2019-03-28T08:00:03.563Z,15.00
2019-03-28T08:01:32.671Z,121.97
2019-03-28T08:03:11.040Z,88.22
2019-03-28T08:04:49.140Z,9.63
2019-03-28T08:06:26.130Z,9.20
2019-03-28T08:08:05.008Z,10.03
2019-03-28T08:09:41.899Z,8.40
2019-03-28T08:11:22.390Z,6.22
2019-03-28T08:12:59.371Z,22.35
2019-03-28T08:14:36.712Z,5.95
2019-03-28T08:16:19.775Z,5.30
2019-03-28T08:18:11.885Z,5.92
2019-03-28T08:20:13.293Z,10.30
2019-03-28T08:21:56.352Z,5.12
2019-03-28T08:23:42.383Z,4.65
2019-03-28T08:25:21.954Z,5.05
2019-03-28T08:27:09.385Z,6.10
2019-03-28T08:28:52.524Z,4.78
2019-03-28T08:30:45.335Z,6.22
2019-03-28T08:32:39.799Z,4.28
2019-03-28T08:34:26.901Z,3.02
2019-03-28T08:36:09.838Z,3.80
2019-03-28T08:37:48.107Z,4.92
2019-03-28T08:39:36.667Z,3.92
2019-03-28T08:41:20.884Z,6.90
2019-03-28T08:42:58.301Z,3.50
2019-03-28T08:44:43.300Z,4.58
2019-03-28T08:46:23.992Z,4.55
2019-03-28T08:48:02.326Z,3.08
2019-03-28T08:49:48.649Z,2.58
2019-03-28T08:51:34.629Z,4.03
2019-03-28T08:53:13.189Z,5.20
2019-03-28T08:54:54.954Z,4.20
2019-03-28T08:56:44.481Z,2.95
2019-03-28T08:58:21.407Z,2.62
2019-03-28T08:59:58.354Z,4.15
2019-03-28T09:01:41.022Z,3.85
2019-03-28T09:03:18.279Z,4.50
2019-03-28T09:04:55.602Z,2.98
2019-03-28T09:06:38.702Z,3.80
2019-03-28T09:08:16.378Z,3.35
2019-03-28T09:09:54.165Z,3.77
2019-03-28T09:11:37.087Z,2.67
2019-03-28T09:13:22.021Z,5.12
2019-03-28T09:14:59.514Z,3.60
2019-03-28T09:16:40.656Z,4.17
2019-03-28T09:18:27.077Z,3.00
2019-03-28T09:20:08.067Z,6.50
2019-03-28T09:21:45.175Z,4.20
2019-03-28T09:23:22.345Z,5.42
2019-03-28T09:24:59.514Z,3.58
2019-03-28T09:26:36.607Z,6.08
2019-03-28T09:28:13.863Z,4.47
2019-03-28T09:29:54.700Z,7.50
2019-03-28T09:31:32.077Z,3.30
2019-03-28T09:33:09.304Z,4.50
2019-03-28T09:34:46.709Z,4.87
2019-03-28T09:36:29.900Z,6.42
2019-03-28T09:38:07.055Z,4.70
2019-03-28T09:39:47.492Z,5.30
2019-03-28T09:41:34.014Z,5.17
2019-03-28T09:43:11.708Z,3.92
2019-03-28T09:44:48.925Z,3.27
2019-03-28T09:46:31.846Z,5.22
2019-03-28T09:48:11.633Z,3.85
2019-03-28T09:49:47.634Z,5.42
2019-03-28T09:51:24.459Z,3.87
2019-03-28T09:53:01.966Z,4.45
2019-03-28T09:54:39.082Z,3.80
2019-03-28T09:56:16.621Z,6.75
2019-03-28T09:57:53.769Z,5.65
2019-03-28T09:59:31.172Z,6.37
2019-03-28T10:01:08.172Z,7.33
2019-03-28T10:02:46.200Z,5.55
2019-03-28T10:04:23.703Z,4.25
2019-03-28T10:06:02.191Z,6.22
2019-03-28T10:07:40.126Z,3.27
2019-03-28T10:09:18.091Z,5.12
2019-03-28T10:10:56.314Z,3.65
2019-03-28T10:12:35.915Z,4.55
2019-03-28T10:14:13.205Z,4.47
2019-03-28T10:15:51.662Z,2.98
2019-03-28T10:17:32.497Z,4.85
2019-03-28T10:19:09.868Z,6.78
2019-03-28T10:20:48.748Z,5.40
2019-03-28T10:22:26.245Z,5.60
2019-03-28T10:24:06.494Z,4.15
2019-03-28T10:25:46.084Z,3.65
2019-03-28T10:27:24.431Z,6.85
2019-03-28T10:29:04.389Z,11.55
2019-03-28T10:30:44.758Z,12.23
2019-03-28T10:32:23.013Z,10.03
2019-03-28T10:34:04.420Z,7.97
2019-03-28T10:35:41.764Z,6.70
2019-03-28T10:37:19.713Z,5.42
2019-03-28T10:38:57.935Z,5.58
2019-03-28T10:40:40.058Z,6.08
2019-03-28T10:42:20.605Z,6.67
2019-03-28T10:43:59.615Z,3.55
2019-03-28T10:45:38.482Z,6.42
2019-03-28T10:47:17.540Z,4.67
2019-03-28T10:48:55.746Z,5.75
2019-03-28T10:50:40.883Z,5.60
2019-03-28T10:52:12.592Z,3.30
2019-03-28T10:53:49.865Z,4.70
2019-03-28T10:55:26.888Z,2.58
2019-03-28T10:57:13.502Z,3.35
2019-03-28T10:58:42.775Z,3.35
2019-03-28T11:00:24.375Z,4.70
2019-03-28T11:01:58.774Z,4.22
2019-03-28T11:03:35.838Z,4.10
2019-03-28T11:05:12.784Z,6.25
2019-03-28T11:06:50.062Z,5.50
2019-03-28T11:08:28.234Z,6.97
2019-03-28T11:10:10.066Z,5.08
2019-03-28T11:11:49.254Z,5.15
2019-03-28T11:13:30.869Z,3.35
2019-03-28T11:15:17.015Z,5.37
2019-03-28T11:17:01.043Z,3.80
2019-03-28T11:19:18.045Z,2.62
2019-03-28T11:21:07.100Z,3.47
2019-03-28T11:23:02.129Z,3.08
2019-03-28T11:25:21.157Z,3.60
2019-03-28T11:27:26.391Z,5.00
2019-03-28T11:31:18.594Z,3.70
2019-03-28T11:33:06.581Z,4.45
2019-03-28T11:34:54.428Z,3.45
2019-03-28T11:36:44.686Z,8.93
2019-03-28T11:38:34.905Z,5.15
2019-03-28T11:40:24.637Z,5.72
2019-03-28T11:42:08.907Z,2.83
2019-03-28T11:43:52.924Z,2.50
2019-03-28T11:45:34.500Z,2.22
2019-03-28T11:47:24.505Z,2.58
2019-03-28T11:49:08.506Z,2.27
2019-03-28T11:50:49.688Z,2.37
2019-03-28T11:54:57.693Z,5.55
2019-03-28T11:57:08.507Z,4.58
2019-03-28T11:59:57.870Z,9.38
2019-03-28T12:02:00.595Z,8.60
2019-03-28T12:04:03.015Z,5.72
2019-03-28T12:06:13.554Z,3.92
2019-03-28T12:08:15.271Z,6.22
2019-03-28T12:10:20.153Z,7.08
2019-03-28T12:12:26.090Z,2.47
2019-03-28T12:14:08.849Z,3.50
2019-03-28T12:15:51.390Z,2.98
2019-03-28T12:17:29.051Z,3.83
2019-03-28T12:19:10.270Z,3.70
2019-03-28T12:20:47.801Z,3.05
2019-03-28T12:22:26.930Z,5.00
2019-03-28T12:24:05.247Z,2.85
2019-03-28T12:25:47.610Z,2.45
2019-03-28T12:27:27.007Z,3.00
2019-03-28T12:29:07.685Z,3.60
2019-03-28T12:30:46.269Z,2.62
2019-03-28T12:32:23.779Z,3.27
2019-03-28T12:34:01.433Z,6.42
2019-03-28T12:35:41.042Z,2.85
2019-03-28T12:37:18.831Z,5.08
2019-03-28T12:38:58.872Z,4.22
2019-03-28T12:40:47.596Z,2.77
2019-03-28T12:45:27.613Z,5.15
2019-03-28T12:47:41.808Z,4.67
2019-03-28T12:49:29.899Z,2.02
2019-03-28T12:51:14.951Z,4.08
2019-03-28T12:53:03.273Z,2.25
2019-03-28T12:54:51.347Z,2.90
2019-03-28T12:56:36.203Z,1.95
2019-03-28T12:58:13.815Z,1.70
2019-03-28T12:59:53.474Z,3.33
2019-03-28T13:01:30.230Z,2.80
2019-03-28T13:03:09.574Z,8.53
2019-03-28T13:04:48.136Z,2.17
2019-03-28T13:06:26.779Z,6.08
2019-03-28T16:48:15.879Z,16.77
2019-03-28T16:49:54.756Z,10.30
2019-03-28T16:51:33.389Z,14.13
2019-03-28T16:53:11.656Z,14.95
2019-03-28T16:54:50.904Z,12.50
2019-03-28T16:56:32.403Z,13.00
2019-03-28T16:58:11.798Z,13.30
2019-03-28T16:59:49.738Z,12.58
2019-03-28T17:01:30.793Z,12.90
2019-03-28T17:03:10.985Z,15.28
2019-03-28T17:04:47.895Z,19.82
2019-03-28T17:06:29.473Z,18.52
2019-03-28T17:08:07.003Z,15.55
2019-03-28T17:09:45.873Z,16.87
2019-03-28T17:11:24.005Z,18.23
2019-03-28T17:13:01.468Z,15.68
2019-03-28T17:14:39.083Z,20.35
2019-03-28T17:16:18.918Z,12.33
2019-03-28T17:17:55.958Z,12.35
2019-03-28T17:19:42.754Z,13.95
2019-03-28T17:21:25.588Z,13.25
2019-03-28T17:23:03.966Z,11.53
2019-03-28T17:24:44.371Z,15.20
2019-03-28T17:26:22.589Z,12.03
2019-03-28T17:27:59.772Z,14.38
2019-03-28T17:29:38.334Z,29.67
2019-03-28T17:31:16.276Z,21.10
2019-03-28T17:32:54.835Z,19.92
2019-03-28T17:34:35.212Z,51.60
2019-03-28T17:36:11.515Z,61.98
2019-03-28T17:37:55.719Z,15.18
2019-03-28T17:39:34.320Z,15.68
2019-03-28T17:41:14.270Z,12.13
2019-03-28T17:42:51.486Z,14.23
2019-03-28T17:44:30.038Z,17.40
2019-03-28T17:46:07.679Z,24.45
2019-03-28T17:47:45.517Z,27.58
2019-03-28T17:49:26.571Z,37.28
2019-03-28T17:51:04.672Z,33.75
2019-03-28T17:52:45.963Z,27.45
2019-03-28T17:54:24.483Z,33.80
2019-03-28T17:56:03.484Z,28.10
2019-03-28T17:57:41.461Z,26.33
2019-03-28T17:59:19.207Z,27.55
2019-03-28T18:01:04.520Z,27.10
2019-03-28T18:02:47.066Z,21.85
2019-03-28T18:04:26.506Z,28.92
2019-03-28T18:06:04.689Z,23.50
2019-03-28T18:07:44.732Z,25.05
2019-03-28T18:09:23.566Z,20.45
2019-03-28T18:11:06.135Z,20.08
2019-03-28T18:12:43.486Z,28.02
2019-03-28T18:14:23.643Z,22.62
2019-03-28T18:16:03.653Z,19.07
2019-03-28T18:17:45.463Z,26.68
2019-03-28T18:19:24.245Z,17.27
2019-03-28T18:21:03.099Z,20.72
2019-03-28T18:22:41.119Z,19.60
2019-03-28T18:24:21.134Z,17.32
2019-03-28T18:25:59.665Z,18.30
2019-03-28T18:27:41.136Z,25.92
2019-03-28T18:29:20.110Z,19.70
2019-03-28T18:30:58.196Z,22.93
2019-03-28T18:32:42.041Z,21.15
2019-03-28T18:36:05.881Z,12.53
2019-03-28T18:37:48.868Z,14.87
2019-03-28T18:39:29.180Z,25.05
2019-03-28T18:41:08.701Z,20.20
2019-03-28T18:42:53.753Z,18.75
2019-03-28T18:44:36.655Z,12.00
2019-03-28T18:46:26.120Z,25.30
2019-03-28T18:48:09.173Z,24.12
2019-03-28T18:49:49.918Z,25.77
2019-03-28T18:51:28.531Z,18.75
2019-03-28T18:53:13.759Z,13.83
2019-03-28T18:54:54.673Z,16.12
2019-03-28T18:56:35.190Z,17.10
2019-03-28T18:58:20.359Z,17.60
2019-03-28T19:00:01.421Z,15.58
2019-03-28T19:01:40.146Z,20.25
2019-03-28T19:03:35.738Z,15.15
2019-03-28T19:05:20.411Z,22.80
2019-03-28T19:07:00.952Z,17.95
2019-03-28T19:08:59.195Z,20.15
2019-03-28T19:10:50.621Z,21.73
2019-03-28T19:12:30.611Z,14.98
2019-03-28T19:14:15.961Z,21.10
2019-03-28T19:16:06.040Z,26.00
2019-03-28T19:17:44.851Z,21.35
2019-03-28T19:19:23.348Z,19.52
2019-03-28T19:21:06.216Z,17.32
2019-03-28T19:22:51.625Z,12.78
2019-03-28T19:24:30.752Z,12.23
2019-03-28T19:26:10.780Z,21.62
2019-03-28T19:27:49.339Z,18.55
2019-03-28T19:29:29.536Z,20.00
2019-03-28T19:31:08.354Z,19.87
2019-03-28T19:32:48.771Z,15.35
2019-03-28T19:34:28.708Z,24.47
2019-03-28T19:36:08.603Z,21.30
2019-03-28T19:37:46.037Z,29.05
2019-03-28T19:39:33.387Z,26.82
2019-03-28T19:41:11.714Z,21.90
2019-03-28T19:42:49.554Z,24.35
2019-03-28T19:44:28.352Z,21.40
2019-03-28T19:46:07.143Z,20.23
2019-03-28T19:49:07.489Z,22.13
2019-03-28T19:50:50.205Z,17.92
2019-03-28T19:52:44.233Z,18.92
2019-03-28T19:54:28.520Z,20.60
2019-03-28T19:56:07.075Z,22.35
2019-03-28T19:57:44.963Z,21.37
2019-03-28T19:59:24.000Z,21.02
2019-03-28T20:01:04.950Z,16.23
2019-03-28T20:02:47.099Z,23.00
2019-03-28T20:04:27.471Z,22.82
2019-03-28T20:06:21.303Z,18.52
2019-03-28T20:07:47.658Z,17.60
2019-03-28T20:09:44.200Z,16.60
2019-03-28T20:11:22.786Z,18.85
2019-03-28T20:13:05.099Z,17.62
2019-03-28T20:14:42.653Z,19.60
2019-03-28T20:16:20.560Z,19.23
2019-03-28T20:17:59.811Z,13.48
2019-03-28T20:19:38.506Z,17.92
2019-03-28T20:21:16.652Z,17.00
2019-03-28T20:22:57.612Z,18.77
2019-03-28T20:24:35.797Z,18.77
2019-03-28T20:26:13.715Z,17.57
2019-03-28T20:27:52.165Z,19.65
2019-03-28T20:29:33.483Z,15.65
2019-03-28T20:31:13.869Z,19.30
2019-03-28T20:32:52.100Z,18.15
2019-03-28T20:34:32.392Z,20.55
2019-03-28T20:36:36.364Z,18.25
2019-03-28T20:37:55.443Z,17.23
2019-03-28T20:39:34.068Z,26.27
2019-03-28T20:41:14.532Z,18.40
2019-03-28T20:42:51.805Z,17.55
2019-03-28T20:44:31.222Z,20.48
2019-03-28T20:46:10.036Z,20.80
2019-03-28T20:47:50.883Z,12.53
2019-03-28T20:49:28.807Z,17.15
2019-03-28T20:51:09.375Z,17.62
2019-03-28T20:52:48.227Z,18.20
2019-03-28T20:54:28.304Z,18.70
2019-03-28T20:56:11.651Z,18.10
2019-03-28T20:57:49.242Z,14.80
2019-03-28T20:59:27.469Z,17.60
2019-03-28T21:01:05.271Z,18.85
2019-03-28T21:02:44.688Z,21.37
2019-03-28T21:04:31.090Z,13.80
2019-03-28T21:06:14.706Z,17.65
2019-03-28T21:07:46.325Z,15.15
2019-03-28T21:09:25.021Z,20.45
2019-03-28T21:11:05.259Z,25.77
2019-03-28T21:12:47.817Z,17.30
2019-03-28T21:16:07.189Z,19.73
2019-03-28T21:17:45.702Z,16.67
2019-03-28T21:19:25.138Z,21.23
2019-03-28T21:21:02.937Z,17.92
2019-03-28T21:22:42.107Z,24.72
2019-03-28T21:24:20.116Z,15.98
2019-03-28T21:25:57.814Z,16.67
2019-03-28T21:27:35.798Z,14.53
2019-03-28T21:29:13.888Z,16.82
2019-03-28T21:30:53.434Z,17.37
2019-03-28T21:32:31.650Z,16.52
2019-03-28T21:34:11.460Z,18.82
2019-03-28T21:35:52.667Z,15.65
2019-03-28T21:37:32.044Z,16.42
2019-03-28T21:39:15.904Z,17.90
2019-03-28T21:40:54.520Z,15.23
2019-03-28T21:42:32.203Z,20.55
2019-03-28T21:44:10.257Z,19.60
2019-03-28T21:45:50.065Z,17.62
2019-03-28T21:47:27.859Z,21.97
2019-03-28T21:49:05.660Z,20.30
2019-03-28T21:50:45.942Z,24.72
2019-03-28T21:52:30.153Z,25.88
2019-03-28T21:54:07.945Z,24.60
2019-03-28T21:55:54.876Z,28.40
2019-03-28T21:57:28.949Z,24.67
2019-03-28T21:59:06.827Z,27.10
2019-03-28T22:00:44.647Z,24.15
2019-03-28T22:02:25.720Z,41.02
2019-03-28T22:04:04.487Z,41.60
2019-03-28T22:05:44.549Z,42.10
2019-03-28T22:07:23.701Z,41.70
2019-03-28T22:09:04.841Z,41.83
2019-03-28T22:10:44.903Z,38.92
2019-03-28T22:12:24.412Z,40.60
2019-03-28T22:14:02.393Z,41.60
2019-03-28T22:15:41.137Z,45.40
2019-03-28T22:17:21.116Z,31.33
2019-03-28T22:19:08.179Z,36.05
2019-03-28T22:21:06.971Z,21.15
2019-03-28T22:22:47.725Z,36.48
2019-03-28T22:24:27.082Z,37.50
2019-03-28T22:26:06.059Z,40.65
2019-03-28T22:27:43.274Z,30.08
2019-03-28T22:29:20.927Z,39.58
2019-03-28T22:31:01.330Z,45.38
2019-03-28T22:32:41.673Z,31.90
2019-03-28T22:34:19.554Z,36.93
2019-03-28T22:36:01.545Z,35.73
2019-03-28T22:37:42.820Z,29.15
2019-03-28T22:39:20.707Z,32.17
2019-03-28T22:40:59.242Z,35.50
2019-03-28T22:42:37.657Z,34.90
2019-03-28T22:44:16.434Z,37.10
2019-03-28T22:45:55.494Z,36.03
2019-03-28T22:47:35.713Z,32.45
2019-03-28T22:49:13.290Z,29.67
2019-03-28T22:50:51.086Z,36.93
2019-03-28T22:52:29.912Z,40.67
2019-03-28T22:54:11.144Z,30.17
2019-03-28T22:55:50.397Z,28.07
2019-03-28T22:57:27.920Z,31.33
2019-03-28T22:59:07.423Z,82.90
2019-03-28T23:00:46.616Z,38.73
2019-03-28T23:02:27.158Z,36.85
2019-03-28T23:04:06.015Z,55.00
2019-03-28T23:05:44.292Z,62.70
2019-03-28T23:07:24.805Z,65.78
2019-03-28T23:09:01.812Z,45.28
2019-03-28T23:10:41.052Z,47.00
2019-03-28T23:12:51.132Z,47.78
2019-03-28T23:14:49.334Z,31.63
2019-03-28T23:16:30.598Z,31.45
2019-03-28T23:18:09.095Z,23.18
2019-03-28T23:19:48.331Z,30.68
2019-03-28T23:21:27.109Z,29.95
2019-03-28T23:23:04.484Z,24.00
2019-03-28T23:24:44.546Z,25.20
2019-03-28T23:26:23.526Z,26.45
2019-03-28T23:28:02.633Z,25.50
2019-03-28T23:29:41.700Z,17.67
2019-03-28T23:31:20.865Z,20.45
2019-03-28T23:32:58.368Z,20.48
2019-03-28T23:34:37.911Z,18.17
2019-03-28T23:36:16.373Z,21.90
2019-03-28T23:37:55.392Z,19.20
2019-03-28T23:39:34.517Z,17.57
2019-03-28T23:41:12.309Z,19.98
2019-03-28T23:42:52.479Z,21.87
2019-03-28T23:44:31.562Z,15.83
2019-03-28T23:46:11.756Z,19.07
2019-03-28T23:47:49.805Z,19.62
2019-03-28T23:49:28.504Z,14.13
2019-03-28T23:51:06.112Z,19.52
2019-03-28T23:52:44.280Z,21.77
2019-03-28T23:54:23.108Z,18.10
2019-03-28T23:56:00.736Z,20.82
2019-03-28T23:57:39.888Z,18.98
2019-03-28T23:59:18.678Z,21.77
